Time;durP1;ratioP1;P1;durP2;ratioP2;P2;SDS_P1;SDS_P2;PMS_P1;PMS_P2;Temp;Humidity;BMP_temperature;BMP_pressure;BME280_temperature;BME280_humidity;BME280_pressure;Samples;Min_cycle;Max_cycle;Signal;HPM_P1;HPM_P2
2022/02/08 00:00:57;;;;;;;;;;;;;;;29.47;50.80;101024.59;5075888;28;70261;-36
2022/02/08 00:03:27;;;;;;;;;;;;;;;29.51;53.27;101022.34;5076428;28;66632;-36
2022/02/08 00:06:13;;;;;;;;;;;;;;;29.54;52.00;101027.34;5072631;28;69419;-36
2022/02/08 00:08:43;;;;;;;;;;;;;;;29.57;52.98;101030.44;5074188;27;66211;-36
2022/02/08 00:11:13;;;;;;;;;;;;;;;29.63;51.78;101036.91;5081657;27;70094;-37
2022/02/08 00:13:43;;;;;;;;;;;;;;;29.67;52.99;101038.19;5078257;28;66789;-38
2022/02/08 00:16:14;;;;;;;;;;;;;;;29.71;53.02;101042.13;5077050;28;70720;-38
2022/02/08 00:18:44;;;;;;;;;;;;;;;29.75;53.93;101043.34;5058506;28;66799;-38
2022/02/08 00:21:15;;;;;;;;;;;;;;;29.80;54.96;101046.25;5075388;27;70157;-37
2022/02/08 00:23:45;;;;;;;;;;;;;;;29.86;53.40;101041.06;5088514;27;66230;-36
2022/02/08 00:26:16;;;;;;;;;;;;;;;29.91;55.06;101052.91;5074957;28;69630;-37
2022/02/08 00:28:46;;;;;;;;;;;;;;;29.98;54.46;101055.63;5070698;28;66980;-37
2022/02/08 00:31:18;;;;;;;;;;;;;;;30.02;55.49;101062.28;5088002;27;70540;-38
2022/02/08 00:33:49;;;;;;;;;;;;;;;30.04;55.22;101063.72;5073438;28;67439;-37
2022/02/08 00:36:20;;;;;;;;;;;;;;;30.07;54.91;101062.47;5070705;28;69927;-37
2022/02/08 00:38:51;;;;;;;;;;;;;;;30.11;55.40;101069.09;5074931;28;66350;-38
2022/02/08 00:41:24;;;;;;;;;;;;;;;30.09;56.49;101073.94;5088047;27;69169;-38
2022/02/08 00:44:05;;;;;;;;;;;;;;;30.12;56.52;101083.50;5090697;27;65645;-38
2022/02/08 00:49:07;;;;;;;;;;;;;;;30.21;56.14;101090.34;5077186;28;65784;-37
2022/02/08 00:51:44;;;;;;;;;;;;;;;30.26;55.89;101086.00;5091724;27;69889;-38
2022/02/08 00:54:15;;;;;;;;;;;;;;;30.31;55.77;101081.81;5080351;27;66504;-39
2022/02/08 00:56:46;;;;;;;;;;;;;;;30.35;55.60;101093.88;5060505;28;70191;-39
2022/02/08 00:59:17;;;;;;;;;;;;;;;30.39;55.50;101095.09;5072167;28;67174;-40
2022/02/08 01:01:47;;;;;;;;;;;;;;;30.43;54.37;101101.78;5090261;27;69843;-39
2022/02/08 01:04:18;;;;;;;;;;;;;;;30.46;54.44;101104.06;5070367;28;66245;-39
2022/02/08 01:06:48;;;;;;;;;;;;;;;30.49;54.15;101103.63;5068776;28;69380;-38
2022/02/08 01:09:22;;;;;;;;;;;;;;;30.53;54.21;101112.16;5073943;28;66878;-38
2022/02/08 01:11:54;;;;;;;;;;;;;;;30.56;53.44;101122.56;5073190;28;70022;-38
2022/02/08 01:14:24;;;;;;;;;;;;;;;30.57;53.91;101125.06;5075216;28;64789;-38
2022/02/08 01:16:54;;;;;;;;;;;;;;;30.58;53.85;101126.72;5069094;28;69757;-39
2022/02/08 01:19:24;;;;;;;;;;;;;;;30.60;53.23;101126.50;5058822;28;65067;-38
2022/02/08 01:21:54;;;;;;;;;;;;;;;30.61;53.14;101131.69;5069376;28;70491;-38
2022/02/08 01:24:24;;;;;;;;;;;;;;;30.63;52.62;101140.44;5079320;28;66155;-38
2022/02/08 01:27:05;;;;;;;;;;;;;;;30.64;52.69;101136.69;5074669;27;70255;-39
2022/02/08 01:37:53;;;;;;;;;;;;;;;30.72;52.00;101158.13;5071228;28;69205;-38
2022/02/08 01:41:39;;;;;;;;;;;;;;;30.66;51.90;101145.44;5056270;28;66741;-38
2022/02/08 01:46:29;;;;;;;;;;;;;;;30.78;52.35;101161.03;5068168;27;65484;-38
2022/02/08 01:49:28;;;;;;;;;;;;;;;30.80;51.40;101161.69;5085394;27;70328;-37
2022/02/08 01:52:00;;;;;;;;;;;;;;;30.82;51.89;101165.03;5088974;27;65478;-38
2022/02/08 01:54:32;;;;;;;;;;;;;;;30.84;51.29;101163.75;5067508;28;70094;-39
2022/02/08 01:57:05;;;;;;;;;;;;;;;30.86;51.35;101171.66;5055702;28;66257;-40
2022/02/08 01:59:36;;;;;;;;;;;;;;;30.88;51.09;101170.41;5042197;28;69983;-38
2022/02/08 02:02:06;;;;;;;;;;;;;;;30.89;51.21;101165.81;5076372;28;66750;-38
2022/02/08 02:04:36;;;;;;;;;;;;;;;30.92;51.30;101176.22;5058219;28;70138;-38
2022/02/08 02:07:06;;;;;;;;;;;;;;;30.93;51.23;101183.31;5076749;28;66299;-38
2022/02/08 02:09:38;;;;;;;;;;;;;;;30.94;51.05;101172.25;5073891;27;69540;-39
2022/02/08 02:12:14;;;;;;;;;;;;;;;30.96;50.71;101177.47;5066287;28;66896;-38
2022/02/08 02:14:45;;;;;;;;;;;;;;;30.98;50.96;101172.69;5071989;28;69695;-39
2022/02/08 02:17:16;;;;;;;;;;;;;;;30.99;50.63;101177.03;5071114;28;65803;-38
2022/02/08 02:19:47;;;;;;;;;;;;;;;31.01;51.08;101174.09;5088510;27;70137;-40
2022/02/08 02:22:17;;;;;;;;;;;;;;;31.02;50.72;101176.59;5073162;27;65265;-39
2022/02/08 02:24:51;;;;;;;;;;;;;;;31.02;50.75;101171.19;5067614;27;43934;-39
2022/02/08 02:27:21;;;;;;;;;;;;;;;31.05;50.78;101176.16;5068069;27;65442;-39
2022/02/08 02:29:52;;;;;;;;;;;;;;;31.07;50.59;101178.69;5069812;27;70060;-39
2022/02/08 02:32:22;;;;;;;;;;;;;;;31.09;50.92;101176.56;5080297;27;65832;-38
2022/02/08 02:34:52;;;;;;;;;;;;;;;31.09;50.73;101174.72;5066970;28;69351;-39
2022/02/08 02:37:22;;;;;;;;;;;;;;;31.10;50.44;101179.06;5069619;28;66420;-38
2022/02/08 02:39:53;;;;;;;;;;;;;;;31.12;50.72;101171.56;5057046;28;69589;-38
2022/02/08 02:42:26;;;;;;;;;;;;;;;31.13;50.61;101178.66;5082552;27;65842;-38
2022/02/08 02:45:02;;;;;;;;;;;;;;;31.15;50.46;101171.13;5069283;28;69896;-38
2022/02/08 02:47:33;;;;;;;;;;;;;;;31.16;50.23;101164.66;5068910;28;67048;-38
2022/02/08 02:50:05;;;;;;;;;;;;;;;31.19;50.38;101163.41;5059989;28;69753;-39
2022/02/08 02:52:36;;;;;;;;;;;;;;;31.22;50.59;101167.56;5062180;28;66576;-38
2022/02/08 02:55:06;;;;;;;;;;;;;;;31.23;50.44;101161.09;5084299;27;70385;-38
2022/02/08 02:57:36;;;;;;;;;;;;;;;31.24;50.38;101162.75;5047807;28;65878;-39
2022/02/08 03:00:11;;;;;;;;;;;;;;;31.26;50.30;101163.34;5069196;27;70045;-39
2022/02/08 03:02:54;;;;;;;;;;;;;;;31.27;49.91;101162.31;5063678;28;68267;-38
2022/02/08 03:05:36;;;;;;;;;;;;;;;31.30;50.48;101161.88;5063296;28;69360;-39
2022/02/08 03:19:18;;;;;;;;;;;;;;;31.39;49.59;101161.44;5070431;28;66175;-38
2022/02/08 03:21:48;;;;;;;;;;;;;;;31.40;50.03;101162.28;5038698;28;69157;-38
2022/02/08 03:24:19;;;;;;;;;;;;;;;31.43;49.87;101153.72;5065667;28;67231;-37
2022/02/08 03:26:49;;;;;;;;;;;;;;;31.45;49.75;101157.03;5068720;28;70213;-38
2022/02/08 03:29:19;;;;;;;;;;;;;;;31.47;49.49;101157.66;5051925;28;66844;-38
2022/02/08 03:31:51;;;;;;;;;;;;;;;31.49;49.88;101155.56;5074893;27;70354;-38
2022/02/08 03:34:21;;;;;;;;;;;;;;;31.51;49.68;101153.47;5070092;28;65641;-39
2022/02/08 03:36:52;;;;;;;;;;;;;;;31.52;49.39;101144.28;5082534;27;70420;-39
2022/02/08 03:39:32;;;;;;;;;;;;;;;31.54;49.53;101142.19;5088283;27;65403;-39
2022/02/08 03:42:25;;;;;;;;;;;;;;;31.56;49.46;101145.47;5068753;27;70127;-39
2022/02/08 03:45:03;;;;;;;;;;;;;;;31.59;49.37;101139.66;5069983;28;66784;-39
2022/02/08 03:47:35;;;;;;;;;;;;;;;31.62;49.50;101138.34;5083860;27;70514;-37
2022/02/08 03:50:07;;;;;;;;;;;;;;;31.65;49.18;101128.94;5079301;27;65591;-40
2022/02/08 03:52:38;;;;;;;;;;;;;;;31.67;49.51;101126.84;5079329;27;70083;-39
2022/02/08 03:55:09;;;;;;;;;;;;;;;31.68;49.70;101120.38;5084227;27;67503;-39
2022/02/08 03:57:40;;;;;;;;;;;;;;;31.71;49.40;101120.78;5089215;27;69650;-38
2022/02/08 04:00:11;;;;;;;;;;;;;;;31.75;49.59;101113.03;5088776;27;68021;-39
2022/02/08 04:02:51;;;;;;;;;;;;;;;31.76;49.44;101104.69;5065817;28;69231;-39
2022/02/08 04:05:27;;;;;;;;;;;;;;;31.79;49.16;101095.28;5069212;28;67306;-39
2022/02/08 04:08:01;;;;;;;;;;;;;;;31.80;49.28;101097.75;5076643;27;70048;-38
2022/02/08 04:10:32;;;;;;;;;;;;;;;31.82;49.03;101092.13;5072401;27;65450;-37
2022/02/08 04:18:31;;;;;;;;;;;;;;;31.87;49.49;101089.53;5074729;28;70782;-38
2022/02/08 04:35:21;;;;;;;;;;;;;;;32.00;49.22;101059.63;5072946;28;70212;-38
2022/02/08 04:40:45;;;;;;;;;;;;;;;32.04;49.11;101050.00;5073591;27;69286;-39
2022/02/08 04:45:57;;;;;;;;;;;;;;;32.08;49.20;101038.69;5078562;28;70680;-38
2022/02/08 04:48:44;;;;;;;;;;;;;;;32.10;49.04;101033.88;5075373;28;66508;-38
2022/02/08 05:02:30;;;;;;;;;;;;;;;32.18;49.24;100998.25;5063187;28;69940;-39
2022/02/08 05:49:03;;;;;;;;;;;;;;;32.45;49.11;100910.00;5071406;27;67016;-39
2022/02/08 05:54:22;;;;;;;;;;;;;;;32.51;49.03;100899.31;5070884;28;66086;-39
2022/02/08 05:56:54;;;;;;;;;;;;;;;32.53;49.09;100889.06;5074029;28;70517;-39
2022/02/08 05:59:24;;;;;;;;;;;;;;;32.53;49.17;100900.75;5073494;28;65897;-38
2022/02/08 06:01:53;;;;;;;;;;;;;;;32.54;49.07;100882.56;5066400;28;69407;-38
2022/02/08 06:04:39;;;;;;;;;;;;;;;32.58;48.88;100881.03;5072886;28;65346;-39
2022/02/08 06:07:19;;;;;;;;;;;;;;;32.60;48.90;100876.22;5070596;28;69486;-38
2022/02/08 06:09:53;;;;;;;;;;;;;;;32.62;49.01;100855.88;5071621;28;66723;-38
2022/02/08 06:12:24;;;;;;;;;;;;;;;32.65;49.07;100860.03;5070476;28;69622;-38
2022/02/08 06:15:07;;;;;;;;;;;;;;;32.66;48.81;100853.56;5071522;28;65227;-38
2022/02/08 06:17:40;;;;;;;;;;;;;;;32.68;48.88;100845.97;5072218;28;69346;-38
2022/02/08 06:20:10;;;;;;;;;;;;;;;32.71;48.96;100842.81;5062429;28;65314;-38
2022/02/08 06:22:44;;;;;;;;;;;;;;;32.72;48.90;100839.03;5069573;27;68937;-39
2022/02/08 06:25:16;;;;;;;;;;;;;;;32.72;48.86;100826.28;5071106;28;66112;-39
2022/02/08 06:27:49;;;;;;;;;;;;;;;32.74;48.89;100826.06;5071835;28;70026;-38
2022/02/08 06:30:22;;;;;;;;;;;;;;;32.75;48.73;100824.97;5070119;28;65439;-38
2022/02/08 06:32:54;;;;;;;;;;;;;;;32.77;48.83;100814.72;5072739;27;70133;-38
2022/02/08 06:35:27;;;;;;;;;;;;;;;32.77;48.79;100814.72;5070636;28;65968;-39
2022/02/08 06:37:59;;;;;;;;;;;;;;;32.77;48.89;100801.13;5072879;28;69739;-39
2022/02/08 06:40:29;;;;;;;;;;;;;;;32.78;48.69;100794.63;5070952;28;66321;-38
2022/02/08 06:43:01;;;;;;;;;;;;;;;32.80;48.98;100795.22;5072043;27;69390;-38
2022/02/08 06:45:32;;;;;;;;;;;;;;;32.81;48.97;100798.75;5070646;28;67261;-39
2022/02/08 06:48:04;;;;;;;;;;;;;;;32.82;49.04;100790.41;5070949;28;70040;-39
2022/02/08 06:50:34;;;;;;;;;;;;;;;32.82;48.73;100779.53;5075014;28;65373;-38
2022/02/08 06:53:04;;;;;;;;;;;;;;;32.83;48.78;100775.75;5070601;28;69525;-39
2022/02/08 06:55:34;;;;;;;;;;;;;;;32.83;48.84;100767.59;5070385;28;64585;-39
2022/02/08 06:58:06;;;;;;;;;;;;;;;32.85;48.90;100768.19;5070128;28;70552;-39
2022/02/08 07:00:41;;;;;;;;;;;;;;;32.86;48.80;100761.69;5070827;28;66668;-40
2022/02/08 07:03:15;;;;;;;;;;;;;;;32.87;48.82;100759.78;5060198;28;70429;-39
2022/02/08 07:05:45;;;;;;;;;;;;;;;32.87;48.91;100752.44;5053911;28;65548;-38
2022/02/08 07:08:15;;;;;;;;;;;;;;;32.88;48.90;100743.25;5075249;28;70098;-39
2022/02/08 07:10:48;;;;;;;;;;;;;;;32.89;48.99;100736.75;5052886;28;66532;-38
2022/02/08 07:13:18;;;;;;;;;;;;;;;32.91;48.89;100729.19;5071665;28;69695;-38
2022/02/08 07:15:48;;;;;;;;;;;;;;;32.93;48.84;100720.78;5069382;28;66695;-38
2022/02/08 07:18:17;;;;;;;;;;;;;;;32.96;49.00;100716.78;5074075;27;69910;-38
2022/02/08 07:20:47;;;;;;;;;;;;;;;32.97;48.89;100711.13;5071373;28;67047;-38
2022/02/08 07:23:17;;;;;;;;;;;;;;;32.99;48.99;100702.72;5070378;28;70075;-39
2022/02/08 07:25:47;;;;;;;;;;;;;;;33.02;48.91;100696.84;5069982;28;66215;-39
2022/02/08 07:28:17;;;;;;;;;;;;;;;33.03;48.62;100698.50;5072114;27;70424;-39
2022/02/08 07:30:47;;;;;;;;;;;;;;;33.06;48.84;100692.56;5065174;28;67033;-38
2022/02/08 07:33:17;;;;;;;;;;;;;;;33.07;48.68;100699.66;5050336;28;70092;-38
2022/02/08 07:36:06;;;;;;;;;;;;;;;33.09;48.58;100687.47;5071849;27;67072;-38
2022/02/08 07:38:38;;;;;;;;;;;;;;;33.11;48.77;100684.53;5070660;28;70866;-38
2022/02/08 07:43:39;;;;;;;;;;;;;;;33.16;48.79;100676.50;5072098;28;69801;-38
2022/02/08 07:46:14;;;;;;;;;;;;;;;33.18;48.62;100677.06;5061273;28;65508;-39
2022/02/08 07:48:44;;;;;;;;;;;;;;;33.19;48.62;100670.56;5070809;28;70293;-38
2022/02/08 07:51:14;;;;;;;;;;;;;;;33.20;48.76;100672.22;5073330;28;65359;-38
2022/02/08 07:53:44;;;;;;;;;;;;;;;33.22;48.58;100680.97;5090734;27;70040;-38
2022/02/08 07:56:16;;;;;;;;;;;;;;;33.24;48.47;100673.41;5076239;28;65793;-38
2022/02/08 07:58:46;;;;;;;;;;;;;;;33.23;48.58;100671.72;5060062;28;71477;-39
2022/02/08 08:01:17;;;;;;;;;;;;;;;33.25;48.60;100669.59;5075906;27;66832;-39
2022/02/08 08:03:47;;;;;;;;;;;;;;;33.27;48.61;100667.47;5071889;28;69979;-39
2022/02/08 08:06:20;;;;;;;;;;;;;;;33.28;48.73;100669.09;5079146;28;66696;-38
2022/02/08 08:08:51;;;;;;;;;;;;;;;33.29;48.48;100668.06;5094326;27;70837;-38
2022/02/08 08:11:22;;;;;;;;;;;;;;;33.30;48.72;100660.72;5071474;28;66631;-39
2022/02/08 08:14:01;;;;;;;;;;;;;;;33.30;48.57;100666.97;5089032;27;70936;-37
2022/02/08 08:21:41;;;;;;;;;;;;;;;33.32;48.64;100681.16;5075258;27;65702;-40
2022/02/08 08:24:13;;;;;;;;;;;;;;;33.32;48.72;100691.19;5070814;28;70026;-41
2022/02/08 08:26:43;;;;;;;;;;;;;;;33.31;48.77;100695.81;5067483;28;65438;-38
2022/02/08 08:29:13;;;;;;;;;;;;;;;33.32;48.67;100707.50;5054552;28;69899;-38
2022/02/08 08:31:43;;;;;;;;;;;;;;;33.31;48.89;100706.69;5071621;28;65591;-38
2022/02/08 08:34:13;;;;;;;;;;;;;;;33.31;49.00;100708.59;5068386;28;68142;-38
2022/02/08 08:36:46;;;;;;;;;;;;;;;33.31;49.17;100712.13;5072461;28;66332;-38
2022/02/08 08:39:18;;;;;;;;;;;;;;;33.31;48.97;100705.88;5071230;28;70271;-37
2022/02/08 08:42:18;;;;;;;;;;;;;;;33.30;49.41;100699.59;5075740;27;65970;-38
2022/02/08 08:52:47;;;;;;;;;;;;;;;33.27;49.97;100681.06;5069986;28;66180;-37
2022/02/08 08:55:17;;;;;;;;;;;;;;;33.27;50.24;100678.34;5076034;28;70127;-38
2022/02/08 08:57:47;;;;;;;;;;;;;;;33.27;50.39;100672.91;5025759;28;66309;-39
2022/02/08 09:00:17;;;;;;;;;;;;;;;33.26;50.65;100676.66;5080028;28;70297;-39
2022/02/08 09:02:47;;;;;;;;;;;;;;;33.26;50.66;100682.13;5060590;28;66145;-39
2022/02/08 09:05:19;;;;;;;;;;;;;;;33.25;50.70;100683.19;5068142;28;69884;-39
2022/02/08 09:07:49;;;;;;;;;;;;;;;33.23;50.81;100685.31;5072543;28;66585;-47
2022/02/08 09:10:25;;;;;;;;;;;;;;;33.23;51.03;100679.88;5088948;27;70434;-38
2022/02/08 09:16:23;;;;;;;;;;;;;;;33.18;51.43;100674.34;4996589;28;70516;-38
2022/02/08 09:24:49;;;;;;;;;;;;;;;33.12;51.80;100705.19;5078156;28;66976;-39
2022/02/08 09:30:15;;;;;;;;;;;;;;;33.08;51.75;100712.19;5047291;28;67159;-38
2022/02/08 09:32:52;;;;;;;;;;;;;;;33.06;52.00;100725.19;5075830;28;69002;-38
2022/02/08 09:35:22;;;;;;;;;;;;;;;33.06;52.37;100733.34;5072955;28;65760;-38
2022/02/08 09:37:52;;;;;;;;;;;;;;;33.05;52.60;100737.13;5071923;28;70436;-38
2022/02/08 09:40:24;;;;;;;;;;;;;;;33.03;52.72;100736.53;5085466;27;66634;-38
2022/02/08 09:42:56;;;;;;;;;;;;;;;33.00;52.67;100745.16;5077479;28;70679;-38
2022/02/08 09:45:27;;;;;;;;;;;;;;;32.98;52.66;100741.81;5073466;28;66579;-38
2022/02/08 09:48:01;;;;;;;;;;;;;;;32.97;52.70;100751.06;5075770;28;69056;-38
2022/02/08 09:50:33;;;;;;;;;;;;;;;32.94;52.66;100747.75;5074291;28;65755;-38
2022/02/08 09:53:07;;;;;;;;;;;;;;;32.92;52.90;100758.00;5068732;28;70562;-38
2022/02/08 09:55:39;;;;;;;;;;;;;;;32.91;53.10;100756.38;5069134;27;66902;-38
2022/02/08 09:58:12;;;;;;;;;;;;;;;32.89;52.84;100758.47;5072561;27;69946;-39
2022/02/08 10:00:42;;;;;;;;;;;;;;;32.87;52.64;100759.78;5071751;28;66081;-38
2022/02/08 10:03:19;;;;;;;;;;;;;;;32.86;52.65;100763.56;5075153;28;69976;-38
2022/02/08 10:05:54;;;;;;;;;;;;;;;32.85;52.70;100768.19;5074122;27;65665;-38
2022/02/08 10:08:24;;;;;;;;;;;;;;;32.84;53.10;100771.13;5076738;28;69423;-38
2022/02/08 10:10:54;;;;;;;;;;;;;;;32.81;52.93;100761.56;5068892;27;65839;-38
2022/02/08 10:22:09;;;;;;;;;;;;;;;32.74;53.18;100788.03;5074847;28;65756;-38
2022/02/08 10:24:46;;;;;;;;;;;;;;;32.72;52.99;100785.53;5072860;28;69040;-38
2022/02/08 10:27:43;;;;;;;;;;;;;;;32.71;53.71;100788.50;5072828;28;66512;-37
2022/02/08 10:38:40;;;;;;;;;;;;;;;32.62;58.59;100785.28;5061297;28;66808;-38
2022/02/08 10:41:18;;;;;;;;;;;;;;;32.49;60.08;100785.53;5059968;28;70359;-37
2022/02/08 10:43:58;;;;;;;;;;;;;;;32.35;60.04;100786.75;5052034;28;66336;-37
2022/02/08 10:46:29;;;;;;;;;;;;;;;32.26;61.70;100780.81;5062338;28;70919;-37
2022/02/08 10:48:59;;;;;;;;;;;;;;;32.22;61.86;100776.94;5067230;28;65983;-38
2022/02/08 10:51:34;;;;;;;;;;;;;;;32.15;62.59;100784.31;5065558;27;70424;-37
2022/02/08 10:54:09;;;;;;;;;;;;;;;32.09;63.36;100790.69;5064970;28;65678;-37
2022/02/08 10:56:42;;;;;;;;;;;;;;;32.01;63.10;100784.53;5066586;28;69223;-36
2022/02/08 10:59:22;;;;;;;;;;;;;;;31.98;62.17;100785.00;5071183;28;66121;-38
2022/02/08 11:02:08;;;;;;;;;;;;;;;31.99;63.18;100797.50;5059559;28;69536;-39
2022/02/08 11:04:50;;;;;;;;;;;;;;;32.00;62.73;100804.56;5064140;28;66392;-39
2022/02/08 11:08:03;;;;;;;;;;;;;;;32.00;62.58;100801.84;5067299;28;70062;-38
2022/02/08 11:10:51;;;;;;;;;;;;;;;32.00;62.72;100798.31;5071468;27;66543;-38
2022/02/08 11:16:02;;;;;;;;;;;;;;;32.00;63.62;100810.00;5067461;28;65443;-38
2022/02/08 11:18:45;;;;;;;;;;;;;;;31.99;63.40;100816.50;5057594;28;70014;-38
2022/02/08 11:21:27;;;;;;;;;;;;;;;31.99;63.41;100813.78;5073578;28;65913;-38
2022/02/08 11:24:02;;;;;;;;;;;;;;;31.97;64.23;100820.50;5071895;27;70700;-37
2022/02/08 11:26:43;;;;;;;;;;;;;;;31.96;63.55;100830.53;5044596;28;66446;-38
2022/02/08 11:29:23;;;;;;;;;;;;;;;31.95;64.33;100828.84;5064149;28;69806;-38
2022/02/08 11:32:24;;;;;;;;;;;;;;;31.94;64.41;100824.47;5070598;28;66466;-37
2022/02/08 12:07:35;;;;;;;;;;;;;;;31.80;64.45;100847.38;5066990;28;70517;-37
2022/02/08 12:10:18;;;;;;;;;;;;;;;31.79;64.40;100856.59;5072172;28;66659;-38
2022/02/08 12:13:23;;;;;;;;;;;;;;;31.78;63.80;100858.44;5088922;27;69165;-39
2022/02/08 12:58:10;;;;;;;;;;;;;;;31.34;58.61;100978.78;5064279;28;69662;-37
2022/02/08 13:01:08;;;;;;;;;;;;;;;31.30;58.51;100978.41;5066732;28;66255;-37
2022/02/08 13:03:59;;;;;;;;;;;;;;;31.28;58.79;100985.09;5063361;28;69464;-36
2022/02/08 13:14:22;;;;;;;;;;;;;;;31.26;58.52;100984.47;5066055;28;66168;-36
2022/02/08 14:03:35;;;;;;;;;;;;;;;30.18;47.92;101034.78;5068695;28;65993;-44
2022/02/08 14:06:18;;;;;;;;;;;;;;;30.10;48.15;101040.41;5061610;28;68161;-48
2022/02/08 14:09:09;;;;;;;;;;;;;;;30.02;47.70;101033.34;5080096;27;66653;-42
2022/02/08 14:11:56;;;;;;;;;;;;;;;29.95;47.60;101040.66;5068520;27;70382;-43
2022/02/08 14:23:06;;;;;;;;;;;;;;;29.71;46.41;101039.41;5065159;28;69284;-44
2022/02/08 14:29:24;;;;;;;;;;;;;;;29.61;46.00;101039.81;5048114;27;70341;-44
2022/02/08 15:13:11;;;;;;;;;;;;;;;29.00;42.82;101052.56;5067401;28;70170;-41
2022/02/08 15:16:21;;;;;;;;;;;;;;;28.97;43.22;101053.78;5081212;27;66945;-40
2022/02/08 15:18:53;;;;;;;;;;;;;;;28.95;43.55;101043.22;5062232;28;69956;-39
2022/02/08 15:21:31;;;;;;;;;;;;;;;28.94;43.25;101043.41;5072736;28;65562;-40
2022/02/08 15:24:01;;;;;;;;;;;;;;;28.91;43.00;101052.75;5071804;28;68942;-38
2022/02/08 15:26:42;;;;;;;;;;;;;;;28.96;48.13;101046.75;5082188;27;66300;-42
2022/02/08 15:29:15;;;;;;;;;;;;;;;29.06;50.62;101040.97;5084477;27;70759;-40
2022/02/08 15:31:45;;;;;;;;;;;;;;;29.12;49.79;101045.56;5065146;27;65816;-41
2022/02/08 15:34:27;;;;;;;;;;;;;;;29.11;48.96;101055.56;5063558;28;69549;-40
2022/02/08 15:36:58;;;;;;;;;;;;;;;29.09;47.97;101057.63;5084531;27;66129;-39
2022/02/08 15:39:30;;;;;;;;;;;;;;;29.07;46.86;101053.44;5065130;28;68590;-39
2022/02/08 15:42:00;;;;;;;;;;;;;;;29.02;46.61;101058.59;5081910;27;65392;-40
2022/02/08 15:44:32;;;;;;;;;;;;;;;28.98;45.74;101050.06;5056637;28;68717;-40
2022/02/08 15:47:07;;;;;;;;;;;;;;;28.93;45.08;101047.97;5075871;27;66163;-40
2022/02/08 15:49:43;;;;;;;;;;;;;;;28.91;45.00;101039.25;5049234;28;69648;-41
2022/02/08 15:52:27;;;;;;;;;;;;;;;28.86;44.62;101052.53;5069606;27;67022;-40
2022/02/08 15:54:59;;;;;;;;;;;;;;;28.82;44.26;101056.66;5073065;28;69300;-40
2022/02/08 15:58:02;;;;;;;;;;;;;;;28.79;43.30;101046.28;5072336;28;65459;-41
2022/02/08 16:09:13;;;;;;;;;;;;;;;28.65;42.87;101061.59;5069082;28;66563;-40
2022/02/08 16:11:52;;;;;;;;;;;;;;;28.62;43.28;101055.75;5066813;28;69086;-40
2022/02/08 16:14:38;;;;;;;;;;;;;;;28.60;42.43;101055.13;5069124;28;65660;-40
2022/02/08 16:20:03;;;;;;;;;;;;;;;28.56;41.96;101048.47;5071608;28;65557;-40
2022/02/08 16:25:38;;;;;;;;;;;;;;;28.51;42.52;101054.47;5042102;28;66833;-40
2022/02/08 16:51:49;;;;;;;;;;;;;;;28.34;41.24;101028.81;5070876;28;68249;-39
2022/02/08 16:54:21;;;;;;;;;;;;;;;28.32;41.09;101025.47;5069818;28;66248;-40
2022/02/08 16:57:13;;;;;;;;;;;;;;;28.29;40.98;101030.22;5063549;28;69780;-39
2022/02/08 16:59:45;;;;;;;;;;;;;;;28.26;40.86;101024.41;5067232;28;66902;-40
2022/02/08 17:02:26;;;;;;;;;;;;;;;28.27;41.08;101026.06;5070461;28;69806;-40
2022/02/08 17:05:00;;;;;;;;;;;;;;;28.25;41.38;101028.13;5069444;27;66154;-39
2022/02/08 17:07:37;;;;;;;;;;;;;;;28.26;41.25;101021.72;5076507;27;69576;-39
2022/02/08 17:10:18;;;;;;;;;;;;;;;28.28;41.46;101023.19;5066670;28;66647;-39
2022/02/08 17:12:57;;;;;;;;;;;;;;;28.27;40.95;101021.50;5071695;28;70677;-39
2022/02/08 17:16:01;;;;;;;;;;;;;;;28.27;40.98;101020.66;5070373;28;66298;-40
2022/02/08 17:46:19;;;;;;;;;;;;;;;28.18;42.01;100989.50;5073810;27;70388;-39
2022/02/08 17:48:50;;;;;;;;;;;;;;;28.17;41.59;100980.59;5072477;27;65729;-39
2022/02/08 17:51:19;;;;;;;;;;;;;;;28.18;42.21;100978.72;5074049;27;70034;-38
2022/02/08 17:54:09;;;;;;;;;;;;;;;28.19;41.93;100974.97;5075807;28;66071;-38
2022/02/08 17:56:39;;;;;;;;;;;;;;;28.17;41.59;100966.28;5071151;27;70005;-40
2022/02/08 17:59:10;;;;;;;;;;;;;;;28.17;41.84;100971.66;5068330;28;66371;-39
2022/02/08 18:01:40;;;;;;;;;;;;;;;28.17;41.95;100972.50;5060605;28;69014;-39
2022/02/08 18:04:12;;;;;;;;;;;;;;;28.15;41.98;100962.94;5068798;28;65489;-40
2022/02/08 18:06:43;;;;;;;;;;;;;;;28.16;42.12;100970.00;5068011;28;70833;-39
2022/02/08 18:09:14;;;;;;;;;;;;;;;28.15;42.05;100968.34;5075993;28;66573;-40
2022/02/08 18:11:44;;;;;;;;;;;;;;;28.15;42.05;100965.63;5070404;27;69278;-39
2022/02/08 18:14:18;;;;;;;;;;;;;;;28.13;41.93;100965.81;5071771;28;66843;-38
2022/02/08 18:17:03;;;;;;;;;;;;;;;28.13;42.03;100965.81;5070092;27;69397;-38
2022/02/08 18:19:38;;;;;;;;;;;;;;;28.12;42.15;100952.56;5069038;28;66506;-37
2022/02/08 18:22:24;;;;;;;;;;;;;;;28.11;42.05;100958.97;5068198;28;69157;-38
2022/02/08 19:09:17;;;;;;;;;;;;;;;27.74;41.93;100905.22;5072159;28;64221;-39
2022/02/08 19:12:01;;;;;;;;;;;;;;;27.94;42.04;100929.63;5073708;27;69220;-39
2022/02/08 19:17:44;;;;;;;;;;;;;;;27.92;42.05;100931.72;5067570;28;70255;-39
2022/02/08 19:20:28;;;;;;;;;;;;;;;27.91;41.90;100930.03;5072901;28;66256;-38
2022/02/08 19:22:58;;;;;;;;;;;;;;;27.90;42.03;100924.84;5072459;28;70024;-39
2022/02/08 19:25:28;;;;;;;;;;;;;;;27.90;41.83;100922.97;5074063;27;66323;-39
2022/02/08 19:28:01;;;;;;;;;;;;;;;27.88;41.76;100922.34;5069950;28;70547;-39
2022/02/08 19:30:31;;;;;;;;;;;;;;;27.88;41.99;100925.03;5075759;28;65136;-39
2022/02/08 19:33:00;;;;;;;;;;;;;;;27.86;41.55;100921.72;5072580;28;69967;-38
2022/02/08 19:35:30;;;;;;;;;;;;;;;27.84;41.80;100916.53;5071713;28;66269;-39
2022/02/08 19:38:01;;;;;;;;;;;;;;;27.84;41.67;100915.69;5075277;28;70546;-39
2022/02/08 19:40:31;;;;;;;;;;;;;;;27.82;41.46;100915.88;5071063;28;67487;-39
2022/02/08 19:43:01;;;;;;;;;;;;;;;27.82;41.79;100915.06;5072803;28;68820;-38
2022/02/08 19:45:36;;;;;;;;;;;;;;;27.82;41.86;100912.34;5070902;27;66452;-40
2022/02/08 19:48:06;;;;;;;;;;;;;;;27.81;41.46;100913.41;5073765;28;69868;-38
2022/02/08 19:50:36;;;;;;;;;;;;;;;27.79;41.66;100910.03;5077077;28;66387;-39
2022/02/08 19:53:07;;;;;;;;;;;;;;;27.78;41.75;100913.78;5072593;27;69125;-39
2022/02/08 19:55:45;;;;;;;;;;;;;;;27.77;41.71;100917.47;5074162;28;66153;-39
2022/02/08 19:58:24;;;;;;;;;;;;;;;27.75;41.40;100908.75;5072165;28;70548;-39
2022/02/08 20:01:09;;;;;;;;;;;;;;;27.75;41.65;100914.13;5071279;28;66282;-38
2022/02/08 20:06:44;;;;;;;;;;;;;;;27.73;41.45;100913.53;5031546;28;66868;-38
2022/02/08 20:09:16;;;;;;;;;;;;;;;27.71;41.78;100913.72;5062591;28;69915;-39
2022/02/08 20:11:47;;;;;;;;;;;;;;;27.71;41.56;100910.19;5072713;28;65831;-40
2022/02/08 20:14:31;;;;;;;;;;;;;;;27.69;41.44;100914.94;5069994;28;70445;-39
2022/02/08 20:17:01;;;;;;;;;;;;;;;27.69;41.70;100917.63;5072456;28;66222;-39
2022/02/08 20:19:31;;;;;;;;;;;;;;;27.68;41.66;100924.06;5073845;28;70067;-39
2022/02/08 20:22:05;;;;;;;;;;;;;;;27.67;41.74;100927.81;5075414;27;67379;-39
2022/02/08 20:24:36;;;;;;;;;;;;;;;27.65;41.51;100924.47;5078357;28;69116;-39
2022/02/08 20:29:36;;;;;;;;;;;;;;;27.63;41.88;100922.78;5073852;28;71599;-40
2022/02/08 20:32:06;;;;;;;;;;;;;;;27.62;41.42;100918.44;5075515;28;67155;-39
2022/02/08 20:34:36;;;;;;;;;;;;;;;27.62;41.66;100914.91;5077226;28;69342;-39
2022/02/08 20:37:06;;;;;;;;;;;;;;;27.61;41.75;100916.78;5073076;28;66416;-39
2022/02/08 20:39:36;;;;;;;;;;;;;;;27.59;41.50;100910.75;5074843;28;70107;-40
2022/02/08 20:42:06;;;;;;;;;;;;;;;27.59;41.91;100915.31;5068140;28;66281;-40
2022/02/08 20:44:38;;;;;;;;;;;;;;;27.58;41.72;100919.88;5072060;28;69936;-40
2022/02/08 20:47:21;;;;;;;;;;;;;;;27.58;41.64;100919.00;5074167;28;66854;-41
2022/02/08 20:49:58;;;;;;;;;;;;;;;27.57;42.00;100923.56;5074358;28;70292;-39